Time;durP1;ratioP1;P1;durP2;ratioP2;P2;SDS_P1;SDS_P2;PMS_P1;PMS_P2;Temp;Humidity;BMP_temperature;BMP_pressure;BME280_temperature;BME280_humidity;BME280_pressure;Samples;Min_cycle;Max_cycle;Signal;HPM_P1;HPM_P2
2024/01/27 00:02:18;;;;;;;21.67;4.60;;;21.70;89.60;;;;;;5066715;28;20214;-71
2024/01/27 00:04:46;;;;;;;18.37;4.37;;;21.80;89.90;;;;;;5067218;28;20214;-71
2024/01/27 00:07:13;;;;;;;17.70;4.30;;;21.80;89.50;;;;;;5064303;28;20318;-71
2024/01/27 00:09:41;;;;;;;21.07;4.73;;;21.80;89.50;;;;;;5067722;28;20202;-72
2024/01/27 00:12:08;;;;;;;18.33;4.27;;;21.80;89.20;;;;;;5070224;28;20586;-71
2024/01/27 00:14:39;;;;;;;17.37;4.70;;;21.80;89.10;;;;;;5064565;28;20312;-72
2024/01/27 00:17:07;;;;;;;22.17;4.83;;;21.70;88.90;;;;;;5067278;28;20585;-73
2024/01/27 00:19:34;;;;;;;16.33;4.67;;;21.80;88.50;;;;;;5069875;28;20210;-71
2024/01/27 00:22:02;;;;;;;19.37;4.47;;;21.80;88.40;;;;;;5063724;28;20217;-71
2024/01/27 00:24:29;;;;;;;17.90;4.80;;;21.90;88.50;;;;;;5067225;28;20253;-71
2024/01/27 00:26:56;;;;;;;19.27;4.40;;;22.00;88.40;;;;;;5069106;28;20531;-70
2024/01/27 00:29:24;;;;;;;28.27;5.27;;;22.00;87.80;;;;;;5063838;28;20551;-72
2024/01/27 00:31:54;;;;;;;19.93;4.17;;;22.00;87.80;;;;;;5064335;28;20626;-70
2024/01/27 00:34:22;;;;;;;16.43;4.00;;;22.00;87.20;;;;;;5064493;28;20186;-70
2024/01/27 00:36:49;;;;;;;27.83;4.10;;;22.10;87.10;;;;;;5066255;28;20593;-70
2024/01/27 00:39:18;;;;;;;19.00;4.53;;;22.10;86.20;;;;;;5066714;28;20606;-72
2024/01/27 00:41:45;;;;;;;20.17;3.63;;;22.10;86.10;;;;;;5066124;28;20248;-70
2024/01/27 00:44:12;;;;;;;16.30;3.77;;;22.20;86.40;;;;;;5063547;28;20305;-71
2024/01/27 00:46:40;;;;;;;20.00;4.40;;;22.30;85.70;;;;;;5070497;28;20717;-71
2024/01/27 00:49:07;;;;;;;27.07;4.93;;;22.30;85.70;;;;;;5070136;28;20646;-72
2024/01/27 00:51:35;;;;;;;17.17;3.83;;;22.40;85.30;;;;;;5063391;28;20187;-73
2024/01/27 00:54:02;;;;;;;20.40;4.60;;;22.30;84.90;;;;;;5070050;28;20195;-71
2024/01/27 00:56:29;;;;;;;17.40;3.73;;;22.30;85.20;;;;;;5068696;28;20180;-72
2024/01/27 00:58:57;;;;;;;17.80;4.07;;;22.40;85.10;;;;;;5067982;28;20183;-73
2024/01/27 01:01:24;;;;;;;20.07;4.00;;;22.30;83.90;;;;;;5061278;28;20229;-72
2024/01/27 01:03:54;;;;;;;13.43;3.77;;;22.30;84.30;;;;;;5061273;28;20674;-71
2024/01/27 01:06:22;;;;;;;20.60;4.50;;;22.30;84.00;;;;;;5068452;28;20662;-70
2024/01/27 01:08:49;;;;;;;23.50;4.50;;;22.40;84.00;;;;;;5067005;28;20213;-70
2024/01/27 01:11:17;;;;;;;20.70;4.63;;;22.50;83.50;;;;;;5063541;28;20274;-71
2024/01/27 01:13:44;;;;;;;16.87;3.40;;;22.50;83.00;;;;;;5058949;28;20237;-71
2024/01/27 01:16:15;;;;;;;16.07;4.20;;;22.50;83.10;;;;;;5057813;28;20193;-74
2024/01/27 01:18:45;;;;;;;17.30;3.70;;;22.50;82.30;;;;;;5058821;28;20191;-68
2024/01/27 01:21:12;;;;;;;15.57;3.47;;;22.60;82.90;;;;;;5057507;28;20191;-74
2024/01/27 01:23:39;;;;;;;22.13;3.90;;;22.70;82.90;;;;;;5069011;28;20226;-71
2024/01/27 01:26:07;;;;;;;16.47;3.50;;;22.80;82.80;;;;;;5064297;28;20260;-71
2024/01/27 01:28:34;;;;;;;18.03;3.50;;;22.80;82.40;;;;;;5059328;28;20187;-70
2024/01/27 01:31:02;;;;;;;14.20;3.83;;;22.80;81.80;;;;;;5060013;28;20216;-73
2024/01/27 01:33:29;;;;;;;15.50;4.03;;;22.80;81.70;;;;;;5066639;28;20186;-71
2024/01/27 01:35:56;;;;;;;17.13;3.90;;;22.80;81.10;;;;;;5070055;28;20234;-73
2024/01/27 01:38:23;;;;;;;14.10;3.27;;;22.80;81.30;;;;;;5071652;28;20312;-70
2024/01/27 01:40:51;;;;;;;17.23;3.83;;;22.80;80.80;;;;;;5064434;28;20187;-69
2024/01/27 01:43:18;;;;;;;13.90;4.00;;;22.60;81.50;;;;;;5069561;28;20576;-70
2024/01/27 01:45:46;;;;;;;16.23;4.03;;;22.50;82.40;;;;;;5061602;28;20589;-72
2024/01/27 01:48:13;;;;;;;19.70;4.60;;;22.40;82.90;;;;;;5061747;28;20187;-72
2024/01/27 01:50:41;;;;;;;15.03;3.57;;;22.30;83.80;;;;;;5058118;28;20596;-71
2024/01/27 01:53:09;;;;;;;14.27;3.47;;;22.40;84.00;;;;;;5059421;28;20198;-69
2024/01/27 01:55:40;;;;;;;15.97;3.47;;;22.40;83.90;;;;;;5062137;28;20188;-70
2024/01/27 01:58:08;;;;;;;12.93;3.80;;;22.40;84.50;;;;;;5065582;28;20218;-72
2024/01/27 02:00:35;;;;;;;14.33;3.63;;;22.50;84.60;;;;;;5062613;28;20528;-71
2024/01/27 02:03:02;;;;;;;15.57;3.63;;;22.60;84.30;;;;;;5057267;28;20627;-70
2024/01/27 02:05:31;;;;;;;19.27;3.47;;;22.80;84.20;;;;;;5066077;28;20195;-72
2024/01/27 02:08:00;;;;;;;17.03;3.70;;;22.90;82.90;;;;;;5060205;28;20594;-71
2024/01/27 02:10:27;;;;;;;16.17;3.93;;;23.00;81.90;;;;;;5067970;28;20187;-69
2024/01/27 02:12:54;;;;;;;14.97;3.40;;;23.20;81.60;;;;;;5062648;28;20178;-69
2024/01/27 02:15:22;;;;;;;14.17;3.60;;;23.30;79.70;;;;;;5059159;28;20187;-69
2024/01/27 02:17:49;;;;;;;15.20;3.80;;;23.30;79.20;;;;;;5068776;28;20179;-70
2024/01/27 02:20:16;;;;;;;16.03;3.37;;;23.40;79.40;;;;;;5067476;28;20271;-71
2024/01/27 02:22:44;;;;;;;15.70;3.73;;;23.30;78.70;;;;;;5065440;28;20232;-70
2024/01/27 02:25:11;;;;;;;16.83;2.97;;;23.30;78.60;;;;;;5069172;28;20183;-68
2024/01/27 02:27:38;;;;;;;16.93;3.93;;;23.30;79.20;;;;;;5064701;28;20176;-68
2024/01/27 02:30:06;;;;;;;16.27;3.80;;;23.50;79.40;;;;;;5064692;28;20701;-70
2024/01/27 02:32:34;;;;;;;18.20;3.73;;;23.60;78.60;;;;;;5066356;28;20696;-69
2024/01/27 02:35:01;;;;;;;17.87;3.80;;;23.80;78.90;;;;;;5068092;28;20245;-69
2024/01/27 02:37:28;;;;;;;15.77;3.70;;;24.00;78.80;;;;;;5066998;28;20179;-70
2024/01/27 02:39:55;;;;;;;13.33;3.53;;;24.10;78.30;;;;;;5065199;28;20279;-69
2024/01/27 02:42:23;;;;;;;16.97;3.77;;;24.00;75.60;;;;;;5057816;28;20325;-69
2024/01/27 02:44:50;;;;;;;12.40;2.97;;;24.00;74.80;;;;;;5067957;28;20307;-68
2024/01/27 02:47:18;;;;;;;16.67;3.73;;;24.00;75.80;;;;;;5064880;28;20608;-69
2024/01/27 02:49:45;;;;;;;14.27;3.43;;;24.10;74.70;;;;;;5071006;28;20205;-69
2024/01/27 02:52:13;;;;;;;12.80;3.30;;;24.30;73.70;;;;;;5075209;28;20186;-69
2024/01/27 02:54:41;;;;;;;13.70;3.40;;;24.40;73.30;;;;;;5077144;28;20252;-70
2024/01/27 02:57:08;;;;;;;19.27;3.40;;;24.40;72.50;;;;;;5089162;28;20181;-69
2024/01/27 02:59:36;;;;;;;11.67;2.80;;;24.40;72.90;;;;;;5084856;28;20171;-68
2024/01/27 03:02:03;;;;;;;20.10;4.00;;;24.40;72.60;;;;;;5074791;28;20179;-68
2024/01/27 03:04:30;;;;;;;18.43;3.17;;;24.40;74.00;;;;;;5064043;28;20211;-69
2024/01/27 03:06:58;;;;;;;20.33;4.60;;;24.30;75.10;;;;;;5074739;28;20191;-70
2024/01/27 03:09:25;;;;;;;21.53;3.93;;;24.30;75.60;;;;;;5075472;28;20185;-69
2024/01/27 03:11:52;;;;;;;20.53;4.07;;;24.00;75.30;;;;;;5076163;28;20688;-68
2024/01/27 03:14:19;;;;;;;25.63;4.67;;;24.00;76.60;;;;;;5077978;28;20191;-74
2024/01/27 03:16:47;;;;;;;19.10;3.93;;;24.10;75.80;;;;;;5066685;28;20437;-68
2024/01/27 03:19:14;;;;;;;22.80;4.53;;;24.00;76.50;;;;;;5076556;28;20621;-69
2024/01/27 03:21:41;;;;;;;18.83;4.07;;;24.00;77.10;;;;;;5074807;28;20186;-74
2024/01/27 03:24:09;;;;;;;21.40;4.63;;;23.70;76.90;;;;;;5074767;28;20195;-76
2024/01/27 03:26:36;;;;;;;17.33;3.73;;;23.70;78.10;;;;;;5074660;28;20175;-74
2024/01/27 03:29:04;;;;;;;21.50;4.20;;;23.60;77.70;;;;;;5075725;28;20233;-74
2024/01/27 03:31:32;;;;;;;18.73;3.77;;;23.40;78.20;;;;;;5074734;28;20179;-77
2024/01/27 03:34:00;;;;;;;16.70;3.77;;;23.30;78.50;;;;;;5087905;28;20178;-74
2024/01/27 03:36:28;;;;;;;13.17;3.27;;;23.20;78.30;;;;;;5090268;28;20242;-75
2024/01/27 03:38:57;;;;;;;14.40;3.83;;;23.20;78.60;;;;;;5081258;28;20190;-72
2024/01/27 03:41:25;;;;;;;20.73;3.97;;;23.20;78.30;;;;;;5074714;28;20178;-73
2024/01/27 03:43:52;;;;;;;14.97;4.60;;;23.30;78.90;;;;;;5071048;28;20677;-73
2024/01/27 03:46:19;;;;;;;13.90;3.60;;;23.20;78.60;;;;;;5067870;28;20245;-74
2024/01/27 03:48:47;;;;;;;19.70;4.47;;;23.20;78.70;;;;;;5066232;28;20274;-71
2024/01/27 03:51:15;;;;;;;16.43;4.10;;;23.10;79.00;;;;;;5074257;28;20183;-73
2024/01/27 03:53:42;;;;;;;20.27;4.57;;;23.00;79.10;;;;;;5073881;28;20262;-69
2024/01/27 03:56:13;;;;;;;22.50;4.20;;;23.00;79.20;;;;;;5066302;28;20179;-76
2024/01/27 03:58:40;;;;;;;20.00;4.10;;;23.00;79.10;;;;;;5074736;28;20195;-74
2024/01/27 04:01:07;;;;;;;27.93;4.30;;;23.00;79.50;;;;;;5075382;28;20183;-68
2024/01/27 04:03:35;;;;;;;21.40;3.97;;;23.00;80.20;;;;;;5074959;28;20206;-74
2024/01/27 04:06:02;;;;;;;16.63;4.00;;;23.00;79.90;;;;;;5073972;28;20202;-71
2024/01/27 04:08:32;;;;;;;19.07;4.13;;;22.90;80.10;;;;;;5077293;28;20183;-73
2024/01/27 04:10:59;;;;;;;14.10;3.13;;;22.80;80.60;;;;;;5062437;28;20190;-73
2024/01/27 04:13:27;;;;;;;14.23;4.07;;;22.70;81.00;;;;;;5069009;28;20183;-73
2024/01/27 04:15:54;;;;;;;21.93;4.13;;;22.80;82.20;;;;;;5074168;28;20269;-73
2024/01/27 04:18:22;;;;;;;19.97;4.60;;;22.90;81.80;;;;;;5074003;28;20171;-72
2024/01/27 04:20:49;;;;;;;17.00;3.60;;;23.20;81.30;;;;;;5073000;28;20504;-74
2024/01/27 04:23:17;;;;;;;18.43;3.80;;;23.70;79.90;;;;;;5072220;28;20234;-74
2024/01/27 04:25:44;;;;;;;14.73;3.83;;;24.10;78.70;;;;;;5072388;28;20529;-72
2024/01/27 04:28:12;;;;;;;15.93;4.23;;;24.50;76.80;;;;;;5073155;28;20190;-74
2024/01/27 04:30:40;;;;;;;19.30;3.60;;;25.00;75.30;;;;;;5074824;28;20194;-76
2024/01/27 04:33:07;;;;;;;15.10;3.37;;;25.30;72.10;;;;;;5074335;28;20543;-69
2024/01/27 04:35:35;;;;;;;14.23;4.13;;;25.40;71.90;;;;;;5073804;28;20223;-68
2024/01/27 04:38:02;;;;;;;13.43;3.47;;;24.80;73.70;;;;;;5084894;28;20522;-69
2024/01/27 04:40:30;;;;;;;14.80;3.27;;;24.90;74.10;;;;;;5073643;28;20189;-67
2024/01/27 04:43:01;;;;;;;16.20;4.03;;;25.00;73.20;;;;;;5075600;28;20577;-70
2024/01/27 04:45:28;;;;;;;12.00;3.17;;;24.80;73.20;;;;;;5072719;28;20186;-69
2024/01/27 04:47:56;;;;;;;11.83;2.93;;;24.60;73.00;;;;;;5067970;28;20222;-71
2024/01/27 04:50:23;;;;;;;16.63;3.93;;;24.40;73.30;;;;;;5073659;28;20180;-69
2024/01/27 04:52:50;;;;;;;13.77;3.43;;;24.40;74.10;;;;;;5085206;28;20268;-70
2024/01/27 04:55:18;;;;;;;14.53;3.47;;;24.70;73.90;;;;;;5074545;28;20550;-69
2024/01/27 04:57:45;;;;;;;13.53;2.83;;;24.80;72.90;;;;;;5068056;28;20175;-69
2024/01/27 05:00:13;;;;;;;17.33;3.93;;;24.80;72.50;;;;;;5070854;28;20656;-71
2024/01/27 05:02:42;;;;;;;13.67;3.13;;;24.80;72.10;;;;;;5073665;28;20692;-68
2024/01/27 05:05:09;;;;;;;16.40;3.53;;;24.60;71.90;;;;;;5072113;28;20210;-71
2024/01/27 05:07:37;;;;;;;13.63;3.57;;;24.50;72.40;;;;;;5063543;28;20171;-70
2024/01/27 05:10:04;;;;;;;15.50;3.77;;;24.50;72.40;;;;;;5072304;28;20274;-70
2024/01/27 05:12:32;;;;;;;18.30;4.27;;;24.50;72.00;;;;;;5080456;28;20537;-69
2024/01/27 05:14:59;;;;;;;16.97;3.93;;;24.70;71.90;;;;;;5069861;28;20218;-70
2024/01/27 05:17:26;;;;;;;21.70;3.63;;;24.90;72.30;;;;;;5065487;28;20211;-69
2024/01/27 05:19:54;;;;;;;25.50;4.10;;;25.10;71.30;;;;;;5063337;28;20212;-69
2024/01/27 05:22:21;;;;;;;17.03;3.73;;;24.90;70.80;;;;;;5066655;28;20187;-69
2024/01/27 05:24:48;;;;;;;17.43;4.03;;;24.80;71.30;;;;;;5062056;28;20222;-70
2024/01/27 05:27:16;;;;;;;18.80;3.87;;;24.80;71.30;;;;;;5067617;28;20321;-68
2024/01/27 05:29:43;;;;;;;18.53;3.73;;;24.80;71.90;;;;;;5066651;28;20187;-68
2024/01/27 05:32:10;;;;;;;21.00;3.40;;;25.30;70.00;;;;;;5069298;28;20228;-70
2024/01/27 05:34:38;;;;;;;20.23;3.90;;;25.30;70.50;;;;;;5067741;28;20764;-68
2024/01/27 05:37:05;;;;;;;15.43;3.63;;;25.20;70.50;;;;;;5070197;28;20183;-71
2024/01/27 05:39:33;;;;;;;16.77;3.60;;;25.30;70.40;;;;;;5070933;28;20191;-68
2024/01/27 05:42:01;;;;;;;14.27;3.50;;;25.10;70.40;;;;;;5069164;28;20179;-70
2024/01/27 05:44:28;;;;;;;18.27;3.70;;;25.00;71.00;;;;;;5071062;28;20215;-70
2024/01/27 05:46:56;;;;;;;19.27;3.67;;;24.70;72.10;;;;;;5067274;28;20216;-72
2024/01/27 05:49:23;;;;;;;18.80;4.13;;;24.70;72.30;;;;;;5065267;28;20194;-73
2024/01/27 05:51:50;;;;;;;21.27;4.30;;;24.50;73.40;;;;;;5067558;28;20552;-70
2024/01/27 05:54:18;;;;;;;19.87;4.03;;;24.30;73.70;;;;;;5068026;28;20210;-71
2024/01/27 05:56:45;;;;;;;24.20;4.17;;;24.30;74.00;;;;;;5070836;28;20183;-72
2024/01/27 05:59:12;;;;;;;21.90;3.67;;;24.30;74.30;;;;;;5071348;28;20187;-70
2024/01/27 06:01:40;;;;;;;20.03;4.43;;;24.00;74.40;;;;;;5069743;28;20186;-71
2024/01/27 06:04:08;;;;;;;20.23;4.13;;;24.00;75.10;;;;;;5058551;28;20677;-71
2024/01/27 06:06:39;;;;;;;18.90;3.60;;;24.00;75.20;;;;;;5072191;28;20171;-68
2024/01/27 06:09:10;;;;;;;16.77;3.87;;;23.90;74.70;;;;;;5067097;28;20204;-70
2024/01/27 06:11:38;;;;;;;15.20;3.77;;;24.10;74.90;;;;;;5061569;28;20211;-69
2024/01/27 06:14:06;;;;;;;18.90;3.87;;;24.20;73.90;;;;;;5066503;28;20187;-70
2024/01/27 06:16:35;;;;;;;19.63;4.37;;;24.30;74.10;;;;;;5058171;28;20200;-69
2024/01/27 06:19:02;;;;;;;21.10;4.60;;;24.30;73.90;;;;;;5067745;28;20262;-71
2024/01/27 06:21:30;;;;;;;25.00;4.57;;;24.50;73.70;;;;;;5055852;28;20184;-72
2024/01/27 06:23:57;;;;;;;18.87;3.93;;;24.50;73.30;;;;;;5058286;28;20222;-73
2024/01/27 06:26:24;;;;;;;19.67;4.13;;;24.50;73.10;;;;;;5067638;28;20674;-71
2024/01/27 06:28:55;;;;;;;16.70;3.93;;;24.50;73.10;;;;;;5067489;28;20187;-70
2024/01/27 06:31:22;;;;;;;18.17;3.90;;;24.40;73.30;;;;;;5064266;28;20706;-72
2024/01/27 06:33:49;;;;;;;14.97;3.87;;;24.40;73.10;;;;;;5074075;28;20646;-72
2024/01/27 06:36:17;;;;;;;15.13;3.97;;;24.30;72.50;;;;;;5061046;28;20643;-72
2024/01/27 06:38:44;;;;;;;16.77;3.83;;;24.10;73.20;;;;;;5058673;28;20207;-73
2024/01/27 06:41:11;;;;;;;23.07;4.93;;;24.00;74.00;;;;;;5059191;28;20193;-70
2024/01/27 06:43:39;;;;;;;13.87;3.50;;;24.10;73.90;;;;;;5059916;28;20740;-73
2024/01/27 06:46:06;;;;;;;18.97;4.57;;;24.20;74.00;;;;;;5061665;28;20183;-68
2024/01/27 06:48:33;;;;;;;19.13;4.30;;;24.30;73.30;;;;;;5065168;28;20533;-68
2024/01/27 06:51:01;;;;;;;21.47;4.13;;;24.20;72.90;;;;;;5075221;28;20191;-71
2024/01/27 06:53:29;;;;;;;14.40;3.90;;;24.10;73.40;;;;;;5083748;28;20179;-71
2024/01/27 06:55:56;;;;;;;18.77;4.23;;;24.00;73.60;;;;;;5075911;28;20319;-71
2024/01/27 06:58:23;;;;;;;20.87;4.57;;;24.00;74.00;;;;;;5075139;28;20182;-70
2024/01/27 07:00:51;;;;;;;16.07;3.23;;;24.00;73.60;;;;;;5075350;28;20183;-71
2024/01/27 07:03:18;;;;;;;24.70;4.87;;;24.20;74.10;;;;;;5075210;28;20191;-72
2024/01/27 07:05:45;;;;;;;24.77;5.20;;;24.00;73.90;;;;;;5075042;28;20651;-70
2024/01/27 07:08:13;;;;;;;23.57;4.53;;;24.00;74.00;;;;;;5072980;28;20171;-73
2024/01/27 07:10:40;;;;;;;21.10;6.13;;;24.00;73.80;;;;;;5074708;28;20658;-69
2024/01/27 07:13:07;;;;;;;18.33;4.90;;;24.10;73.50;;;;;;5077429;28;20262;-69
2024/01/27 07:15:37;;;;;;;21.17;4.67;;;24.10;73.30;;;;;;5065575;28;20179;-73
2024/01/27 07:18:05;;;;;;;19.60;4.03;;;24.10;73.50;;;;;;5076739;28;20171;-70
2024/01/27 07:20:32;;;;;;;22.23;4.60;;;24.10;73.70;;;;;;5070430;28;20179;-68
2024/01/27 07:22:59;;;;;;;21.13;4.30;;;24.20;73.60;;;;;;5074441;28;20186;-70
2024/01/27 07:25:28;;;;;;;12.40;3.70;;;24.10;73.10;;;;;;5079463;28;20187;-70
2024/01/27 07:27:55;;;;;;;22.60;4.53;;;23.90;73.50;;;;;;5083518;28;20218;-70
2024/01/27 07:30:22;;;;;;;19.43;4.77;;;23.90;73.50;;;;;;5075214;28;20233;-71
2024/01/27 07:32:50;;;;;;;19.63;4.03;;;23.90;73.30;;;;;;5076698;28;20183;-71
2024/01/27 07:35:17;;;;;;;20.93;4.27;;;23.90;73.40;;;;;;5085511;28;20239;-69
2024/01/27 07:37:44;;;;;;;21.23;3.87;;;24.00;73.40;;;;;;5074825;28;20183;-69
2024/01/27 07:40:12;;;;;;;14.90;3.70;;;24.00;73.40;;;;;;5080158;28;20716;-69
2024/01/27 07:42:41;;;;;;;19.07;4.37;;;24.10;73.50;;;;;;5081924;28;20175;-71
2024/01/27 07:45:11;;;;;;;27.57;5.00;;;24.10;73.70;;;;;;5072788;28;20306;-70
2024/01/27 07:47:38;;;;;;;22.10;4.33;;;24.10;73.10;;;;;;5071905;28;20183;-69
2024/01/27 07:50:06;;;;;;;23.43;4.87;;;24.00;73.60;;;;;;5075417;28;20187;-69
2024/01/27 07:52:34;;;;;;;22.43;4.50;;;24.00;73.60;;;;;;5080605;28;20178;-70
2024/01/27 07:55:01;;;;;;;20.37;5.13;;;24.00;73.60;;;;;;5075435;28;20198;-69
2024/01/27 07:57:29;;;;;;;24.77;5.97;;;24.00;73.90;;;;;;5058555;28;20184;-68
2024/01/27 07:59:56;;;;;;;21.20;5.20;;;24.00;73.40;;;;;;5075468;28;20179;-71
2024/01/27 08:02:23;;;;;;;21.07;4.93;;;24.00;73.60;;;;;;5073967;28;20199;-71
2024/01/27 08:04:51;;;;;;;18.27;3.83;;;24.00;73.10;;;;;;5087124;28;20710;-69
2024/01/27 08:07:18;;;;;;;21.17;4.70;;;23.80;72.40;;;;;;5078825;28;20199;-74
2024/01/27 08:09:45;;;;;;;16.93;4.47;;;23.80;72.50;;;;;;5076250;28;20664;-71
2024/01/27 08:12:12;;;;;;;13.50;3.77;;;23.80;72.40;;;;;;5071836;28;20650;-69
2024/01/27 08:14:40;;;;;;;15.50;4.07;;;23.90;72.50;;;;;;5060302;28;20206;-70
2024/01/27 08:17:07;;;;;;;22.57;3.97;;;23.80;72.60;;;;;;5068929;28;20190;-70
2024/01/27 08:19:34;;;;;;;18.87;3.80;;;23.80;72.70;;;;;;5068317;28;20536;-69
2024/01/27 08:22:02;;;;;;;21.60;4.17;;;23.70;72.70;;;;;;5069221;28;20180;-70
2024/01/27 08:24:29;;;;;;;21.30;4.33;;;23.70;72.90;;;;;;5069662;28;20301;-73
2024/01/27 08:26:57;;;;;;;17.03;3.20;;;23.80;72.80;;;;;;5072515;28;20247;-69
2024/01/27 08:29:24;;;;;;;16.00;4.60;;;23.80;72.60;;;;;;5072021;28;20187;-69
2024/01/27 08:31:51;;;;;;;20.93;4.10;;;23.80;72.50;;;;;;5072696;28;20208;-71
2024/01/27 08:34:19;;;;;;;20.53;3.63;;;23.80;72.90;;;;;;5070820;28;20178;-72
2024/01/27 08:36:46;;;;;;;17.47;4.17;;;23.80;72.60;;;;;;5071217;28;20182;-69
2024/01/27 08:39:13;;;;;;;17.27;3.83;;;23.80;72.60;;;;;;5069471;28;20186;-69
2024/01/27 08:41:41;;;;;;;25.07;4.70;;;23.80;72.30;;;;;;5069888;28;21681;-72
2024/01/27 08:44:08;;;;;;;16.33;3.47;;;23.80;72.60;;;;;;5072843;28;20322;-72
2024/01/27 08:46:35;;;;;;;19.27;4.73;;;23.70;72.80;;;;;;5062055;28;20626;-72
2024/01/27 08:49:03;;;;;;;21.97;4.17;;;23.70;72.70;;;;;;5079012;28;20189;-72
2024/01/27 08:51:30;;;;;;;22.03;4.53;;;23.70;72.80;;;;;;5072770;28;20179;-73
2024/01/27 08:53:57;;;;;;;21.50;4.00;;;23.60;73.10;;;;;;5078928;28;20187;-74
2024/01/27 08:56:25;;;;;;;15.97;3.90;;;23.70;73.20;;;;;;5079076;28;20185;-73
2024/01/27 08:58:52;;;;;;;17.30;3.53;;;23.60;73.30;;;;;;5080367;28;20183;-74
2024/01/27 09:01:20;;;;;;;16.73;4.43;;;23.70;73.70;;;;;;5072920;28;20183;-74
2024/01/27 09:03:47;;;;;;;25.23;3.97;;;23.60;73.80;;;;;;5072658;28;20269;-70
2024/01/27 09:06:16;;;;;;;19.40;3.93;;;23.60;73.90;;;;;;5072506;28;20191;-72
2024/01/27 09:08:45;;;;;;;16.90;4.37;;;23.60;74.00;;;;;;5073049;28;20269;-73
2024/01/27 09:11:12;;;;;;;16.43;4.30;;;23.50;74.30;;;;;;5072702;28;20214;-75
2024/01/27 09:13:39;;;;;;;15.67;3.43;;;23.50;74.30;;;;;;5070614;28;20630;-73
2024/01/27 09:16:07;;;;;;;19.70;3.77;;;23.50;74.40;;;;;;5068952;28;20190;-71
2024/01/27 09:18:34;;;;;;;13.80;3.53;;;23.50;74.60;;;;;;5072393;28;20171;-73
2024/01/27 09:21:02;;;;;;;20.77;4.40;;;23.50;74.80;;;;;;5080158;28;20651;-72
2024/01/27 09:23:29;;;;;;;20.20;4.07;;;23.40;74.80;;;;;;5077086;28;20245;-73
2024/01/27 09:25:57;;;;;;;18.27;3.90;;;23.40;74.80;;;;;;5074664;28;20179;-70
2024/01/27 09:28:24;;;;;;;18.73;4.73;;;23.40;74.80;;;;;;5072476;28;20190;-73
2024/01/27 09:30:51;;;;;;;19.40;3.93;;;23.30;74.60;;;;;;5074037;28;20222;-70
2024/01/27 09:33:23;;;;;;;22.07;4.80;;;23.40;74.50;;;;;;5072103;28;20183;-73
2024/01/27 09:35:50;;;;;;;15.37;3.83;;;23.40;74.60;;;;;;5073115;28;20233;-74
2024/01/27 09:38:18;;;;;;;20.30;4.23;;;23.40;74.50;;;;;;5072850;28;20195;-71
2024/01/27 09:40:46;;;;;;;21.47;4.83;;;23.40;74.50;;;;;;5078506;28;20174;-69
2024/01/27 09:43:16;;;;;;;22.17;4.40;;;23.40;74.70;;;;;;5079001;28;20198;-72
2024/01/27 09:45:44;;;;;;;17.83;4.33;;;23.40;74.70;;;;;;5067805;28;20598;-74
2024/01/27 09:48:12;;;;;;;23.63;4.63;;;23.40;75.00;;;;;;5074570;28;20183;-69
2024/01/27 09:50:42;;;;;;;28.77;4.27;;;23.40;75.00;;;;;;5077128;28;20210;-71
2024/01/27 09:53:10;;;;;;;20.10;4.43;;;23.40;74.90;;;;;;5076553;28;20180;-71
2024/01/27 09:55:37;;;;;;;19.37;4.77;;;23.40;75.20;;;;;;5077739;28;20232;-70
2024/01/27 09:58:05;;;;;;;18.37;4.13;;;23.40;75.20;;;;;;5076642;28;20179;-70
2024/01/27 10:00:35;;;;;;;23.30;4.87;;;23.30;75.30;;;;;;5079551;28;20182;-70
2024/01/27 10:03:03;;;;;;;18.47;4.20;;;23.30;75.40;;;;;;5077038;28;20565;-70
2024/01/27 10:05:32;;;;;;;21.77;4.13;;;23.30;75.50;;;;;;5075316;28;20211;-70
2024/01/27 10:07:59;;;;;;;16.53;3.57;;;23.30;75.40;;;;;;5076029;28;20179;-69
2024/01/27 10:10:27;;;;;;;17.37;4.40;;;23.30;75.60;;;;;;5080045;28;20630;-71
2024/01/27 10:12:55;;;;;;;25.93;4.67;;;23.30;75.70;;;;;;5063055;28;20186;-69
2024/01/27 10:15:23;;;;;;;17.90;4.27;;;23.40;75.60;;;;;;5069302;28;20184;-71
2024/01/27 10:17:51;;;;;;;22.43;4.50;;;23.30;75.70;;;;;;5067521;28;20267;-72
2024/01/27 10:20:18;;;;;;;18.37;4.57;;;23.40;75.80;;;;;;5079558;28;20190;-70
2024/01/27 10:22:46;;;;;;;26.07;4.67;;;23.30;75.90;;;;;;5076369;28;20224;-72
2024/01/27 10:25:14;;;;;;;24.50;4.27;;;23.40;76.00;;;;;;5062499;28;20216;-70
2024/01/27 10:27:41;;;;;;;30.23;4.00;;;23.40;76.00;;;;;;5068159;28;20533;-69
2024/01/27 10:30:17;;;;;;;16.00;3.73;;;23.30;76.10;;;;;;5076131;28;20186;-71
2024/01/27 10:32:55;;;;;;;23.23;4.57;;;23.30;76.10;;;;;;5075978;28;20300;-73
2024/01/27 10:35:22;;;;;;;22.07;4.17;;;23.30;76.30;;;;;;5073140;28;20238;-69
2024/01/27 10:37:54;;;;;;;23.13;4.33;;;23.30;76.20;;;;;;5074332;28;20268;-74
2024/01/27 10:40:26;;;;;;;27.47;4.10;;;23.40;76.20;;;;;;5078361;28;20190;-70
2024/01/27 10:43:04;;;;;;;19.80;3.90;;;23.30;76.30;;;;;;5086486;28;20578;-69
2024/01/27 10:45:39;;;;;;;22.57;3.77;;;23.30;76.30;;;;;;5067655;28;20190;-68
2024/01/27 10:48:11;;;;;;;22.33;3.90;;;23.40;76.30;;;;;;5069327;28;20629;-68
2024/01/27 10:50:42;;;;;;;27.63;4.33;;;23.30;76.40;;;;;;5063678;28;20186;-70
2024/01/27 10:53:30;;;;;;;18.90;3.73;;;23.30;76.40;;;;;;5073537;28;20277;-70
2024/01/27 10:55:59;;;;;;;21.20;4.07;;;23.30;76.50;;;;;;5073656;28;20191;-71
2024/01/27 10:58:28;;;;;;;19.90;4.03;;;23.30;76.40;;;;;;5073656;28;20175;-70
2024/01/27 11:00:58;;;;;;;28.27;5.33;;;23.30;76.60;;;;;;5082004;28;20633;-69
2024/01/27 11:03:27;;;;;;;21.57;4.17;;;23.30;76.70;;;;;;5074056;28;20203;-68
2024/01/27 11:05:56;;;;;;;17.13;4.40;;;23.30;76.80;;;;;;5072970;28;20191;-68
2024/01/27 11:08:27;;;;;;;23.47;3.67;;;23.30;76.60;;;;;;5079127;28;20174;-69
2024/01/27 11:10:55;;;;;;;18.07;4.30;;;23.30;76.50;;;;;;5073124;28;20529;-70
2024/01/27 11:13:24;;;;;;;33.90;4.87;;;23.30;76.60;;;;;;5067483;28;20207;-71
2024/01/27 11:15:55;;;;;;;20.10;3.83;;;23.30;76.60;;;;;;5068070;28;20192;-70
2024/01/27 11:18:22;;;;;;;22.83;4.23;;;23.30;76.60;;;;;;5075245;28;20187;-69
2024/01/27 11:20:52;;;;;;;31.73;5.43;;;23.30;76.50;;;;;;5061766;28;20211;-68
2024/01/27 11:23:20;;;;;;;23.93;4.13;;;23.30;76.50;;;;;;5071324;28;20206;-71
2024/01/27 11:25:47;;;;;;;15.17;3.90;;;23.30;76.60;;;;;;5072883;28;20580;-72
2024/01/27 11:28:16;;;;;;;19.83;4.00;;;23.30;76.30;;;;;;5072161;28;20207;-70
2024/01/27 11:30:50;;;;;;;26.77;4.47;;;23.30;76.20;;;;;;5069687;28;20225;-71
2024/01/27 11:33:18;;;;;;;23.60;4.33;;;23.30;76.20;;;;;;5070851;28;20225;-69
2024/01/27 11:35:46;;;;;;;17.20;4.30;;;23.30;76.30;;;;;;4968524;28;2981844;-69
2024/01/27 11:38:14;;;;;;;22.60;4.90;;;23.30;76.40;;;;;;5074391;28;20191;-71
2024/01/27 11:40:50;;;;;;;20.83;3.93;;;23.20;76.40;;;;;;5074701;28;20558;-73
2024/01/27 11:43:17;;;;;;;18.90;4.37;;;23.20;76.50;;;;;;5061206;28;20543;-71
2024/01/27 11:45:55;;;;;;;17.00;4.43;;;23.10;76.60;;;;;;5069495;28;20274;-70
2024/01/27 11:48:22;;;;;;;21.43;4.57;;;23.10;76.70;;;;;;5071482;28;20174;-70
2024/01/27 11:50:49;;;;;;;21.77;5.00;;;23.10;76.90;;;;;;5073671;28;20637;-70
2024/01/27 11:53:17;;;;;;;17.00;3.53;;;23.10;76.90;;;;;;5071539;28;20191;-69
2024/01/27 11:55:55;;;;;;;21.03;4.33;;;23.10;76.90;;;;;;5073915;28;20183;-71
2024/01/27 11:58:23;;;;;;;22.27;4.43;;;23.10;77.10;;;;;;5071290;28;20218;-70
2024/01/27 12:00:50;;;;;;;22.93;4.30;;;23.10;77.00;;;;;;5073299;28;20240;-70
2024/01/27 12:03:17;;;;;;;16.43;3.87;;;23.00;77.20;;;;;;5073342;28;20179;-70
2024/01/27 12:05:45;;;;;;;16.60;3.80;;;23.00;77.30;;;;;;5072449;28;20195;-69
2024/01/27 12:08:12;;;;;;;24.40;4.17;;;23.00;77.20;;;;;;5073147;28;20172;-69
2024/01/27 12:10:40;;;;;;;23.40;4.37;;;23.00;77.30;;;;;;5073761;28;20214;-70
2024/01/27 12:13:07;;;;;;;19.97;4.20;;;22.90;77.40;;;;;;5072267;28;20262;-70
2024/01/27 12:15:35;;;;;;;19.97;4.40;;;22.90;77.50;;;;;;5076040;28;20187;-70
2024/01/27 12:18:05;;;;;;;18.07;3.50;;;22.80;77.60;;;;;;5071674;28;20558;-69
2024/01/27 12:20:32;;;;;;;24.47;4.20;;;22.80;77.80;;;;;;5077572;28;20187;-69
2024/01/27 12:23:09;;;;;;;28.03;4.23;;;22.80;78.00;;;;;;5077977;28;20296;-68
2024/01/27 12:25:36;;;;;;;26.90;4.70;;;22.80;78.20;;;;;;5070271;28;20194;-69
2024/01/27 12:28:06;;;;;;;16.90;3.73;;;22.70;78.40;;;;;;5075807;28;20530;-70
2024/01/27 12:30:35;;;;;;;26.27;4.27;;;22.70;78.60;;;;;;5072307;28;20190;-68
2024/01/27 12:33:09;;;;;;;20.60;3.90;;;22.60;78.80;;;;;;5073319;28;20179;-69
2024/01/27 12:35:37;;;;;;;21.73;4.30;;;22.60;78.90;;;;;;5070048;28;20226;-70
2024/01/27 12:38:06;;;;;;;24.43;4.40;;;22.60;78.90;;;;;;5074519;28;20258;-70
2024/01/27 12:40:33;;;;;;;27.93;5.20;;;22.50;78.90;;;;;;5069079;28;20661;-69